Ora Direzione Vento Velocita' Vento Media Vento Raffica Max. Temperatura Wind Chill Pioggia Pressione
10:39:56.035 °(NE)7.6 Kts7.53 Kts14.5 Kts17.0 °C16.65 °C0.0 mm1025.2 Hpa
10:18:55.00 °(N)6.2 Kts5.16 Kts14.5 Kts16.2 °C15.92 °C0.0 mm1025.9 Hpa
09:57:53.00 °(N)9.4 Kts6.26 Kts14.5 Kts15.1 °C14.11 °C0.0 mm1025.4 Hpa
09:39:01.00 °(N)7.5 Kts7.13 Kts14.5 Kts14.3 °C13.34 °C0.0 mm1025.4 Hpa
09:19:40.00 °(N)7.0 Kts7.13 Kts14.5 Kts13.3 °C12.3 °C0.0 mm1025.4 Hpa
08:58:17.00 °(N)9.8 Kts7.96 Kts14.5 Kts12.3 °C10.5 °C0.0 mm1024.9 Hpa
08:39:25.00 °(N)10.5 Kts8.53 Kts14.4 Kts11.6 °C9.57 °C0.0 mm1024.9 Hpa
08:18:37.00 °(N)8.5 Kts9.3 Kts14.0 Kts10.8 °C8.84 °C0.0 mm1026.0 Hpa
07:59:51.00 °(N)12.8 Kts10.63 Kts14.0 Kts10.1 °C7.32 °C0.0 mm1024.9 Hpa
07:38:57.00 °(N)9.8 Kts7.86 Kts12.8 Kts9.5 °C7.01 °C0.0 mm1024.9 Hpa
07:18:05.00 °(N)6.0 Kts7.16 Kts12.7 Kts8.8 °C7.08 °C0.0 mm1025.4 Hpa
06:59:15.00 °(N)6.6 Kts6.43 Kts12.7 Kts8.3 °C6.24 °C0.0 mm1025.4 Hpa
06:38:17.00 °(N)5.2 Kts4.43 Kts12.7 Kts8.0 °C6.37 °C0.0 mm1023.7 Hpa
06:19:32.00 °(N)6.9 Kts6.76 Kts12.7 Kts7.9 °C5.75 °C0.0 mm1023.7 Hpa
05:58:42.00 °(N)8.4 Kts6.36 Kts12.7 Kts8.1 °C5.67 °C0.0 mm1023.7 Hpa
05:37:53.00 °(N)5.3 Kts6.66 Kts12.7 Kts8.1 °C6.49 °C0.0 mm1023.7 Hpa
05:19:10.028 °(NNE)7.3 Kts7.23 Kts12.7 Kts8.3 °C6.16 °C0.0 mm1023.7 Hpa
04:58:21.00 °(N)6.2 Kts6.2 Kts12.7 Kts8.5 °C6.64 °C0.0 mm1024.2 Hpa
04:39:38.00 °(N)5.2 Kts6.1 Kts12.7 Kts8.6 °C7.09 °C0.0 mm1023.7 Hpa
04:18:53.00 °(N)6.7 Kts6.06 Kts12.7 Kts9.0 °C7.09 °C0.0 mm1024.2 Hpa